sensor_id;sensor_type;location;lat;lon;timestamp;P1;durP1;ratioP1;P2;durP2;ratioP2
19758;SDS011;10038;42.662;23.278;2023-03-01T00:02:01;5.70;;;4.10;;
19758;SDS011;10038;42.662;23.278;2023-03-01T00:04:30;5.60;;;3.83;;
19758;SDS011;10038;42.662;23.278;2023-03-01T00:06:56;7.27;;;3.77;;
19758;SDS011;10038;42.662;23.278;2023-03-01T00:09:24;6.67;;;3.77;;
19758;SDS011;10038;42.662;23.278;2023-03-01T00:11:52;5.20;;;3.90;;
19758;SDS011;10038;42.662;23.278;2023-03-01T00:14:18;7.13;;;4.10;;
19758;SDS011;10038;42.662;23.278;2023-03-01T00:16:45;6.10;;;4.00;;
19758;SDS011;10038;42.662;23.278;2023-03-01T00:19:14;5.63;;;4.07;;
19758;SDS011;10038;42.662;23.278;2023-03-01T00:21:41;6.57;;;3.50;;
19758;SDS011;10038;42.662;23.278;2023-03-01T00:24:08;6.07;;;3.17;;
19758;SDS011;10038;42.662;23.278;2023-03-01T00:26:35;5.33;;;3.03;;
19758;SDS011;10038;42.662;23.278;2023-03-01T00:29:05;6.03;;;3.80;;
19758;SDS011;10038;42.662;23.278;2023-03-01T00:31:33;4.68;;;3.65;;
19758;SDS011;10038;42.662;23.278;2023-03-01T00:34:00;5.00;;;3.53;;
19758;SDS011;10038;42.662;23.278;2023-03-01T00:36:31;5.30;;;3.20;;
19758;SDS011;10038;42.662;23.278;2023-03-01T00:39:02;3.50;;;2.92;;
19758;SDS011;10038;42.662;23.278;2023-03-01T00:41:29;6.43;;;4.30;;
19758;SDS011;10038;42.662;23.278;2023-03-01T00:43:56;5.10;;;2.97;;
19758;SDS011;10038;42.662;23.278;2023-03-01T00:46:24;6.47;;;3.50;;
19758;SDS011;10038;42.662;23.278;2023-03-01T00:48:51;5.63;;;3.07;;
19758;SDS011;10038;42.662;23.278;2023-03-01T00:51:18;3.90;;;3.10;;
19758;SDS011;10038;42.662;23.278;2023-03-01T00:53:45;6.50;;;3.20;;
19758;SDS011;10038;42.662;23.278;2023-03-01T00:56:13;3.50;;;2.67;;
19758;SDS011;10038;42.662;23.278;2023-03-01T00:58:40;3.63;;;2.83;;
19758;SDS011;10038;42.662;23.278;2023-03-01T01:01:07;4.83;;;2.67;;
19758;SDS011;10038;42.662;23.278;2023-03-01T01:03:43;3.97;;;3.07;;
19758;SDS011;10038;42.662;23.278;2023-03-01T01:06:13;3.77;;;3.00;;
19758;SDS011;10038;42.662;23.278;2023-03-01T01:08:39;3.93;;;2.83;;
19758;SDS011;10038;42.662;23.278;2023-03-01T01:11:08;4.37;;;3.33;;
19758;SDS011;10038;42.662;23.278;2023-03-01T01:13:35;4.10;;;3.70;;
19758;SDS011;10038;42.662;23.278;2023-03-01T01:16:02;5.37;;;3.67;;
19758;SDS011;10038;42.662;23.278;2023-03-01T01:18:29;6.63;;;3.27;;
19758;SDS011;10038;42.662;23.278;2023-03-01T01:20:57;3.83;;;2.80;;
19758;SDS011;10038;42.662;23.278;2023-03-01T01:23:23;3.80;;;2.70;;
19758;SDS011;10038;42.662;23.278;2023-03-01T01:25:51;3.57;;;2.20;;
19758;SDS011;10038;42.662;23.278;2023-03-01T01:28:18;3.00;;;2.60;;
19758;SDS011;10038;42.662;23.278;2023-03-01T01:30:45;2.83;;;2.40;;
19758;SDS011;10038;42.662;23.278;2023-03-01T01:33:11;2.70;;;2.37;;
19758;SDS011;10038;42.662;23.278;2023-03-01T01:35:38;2.13;;;1.93;;
19758;SDS011;10038;42.662;23.278;2023-03-01T01:38:06;3.97;;;2.57;;
19758;SDS011;10038;42.662;23.278;2023-03-01T01:40:42;3.63;;;2.73;;
19758;SDS011;10038;42.662;23.278;2023-03-01T01:43:09;2.87;;;2.30;;
19758;SDS011;10038;42.662;23.278;2023-03-01T01:45:39;2.33;;;1.90;;
19758;SDS011;10038;42.662;23.278;2023-03-01T01:48:06;3.80;;;2.30;;
19758;SDS011;10038;42.662;23.278;2023-03-01T01:50:36;3.70;;;2.13;;
19758;SDS011;10038;42.662;23.278;2023-03-01T01:53:08;4.03;;;3.17;;
19758;SDS011;10038;42.662;23.278;2023-03-01T01:55:36;2.90;;;1.70;;
19758;SDS011;10038;42.662;23.278;2023-03-01T01:58:04;2.83;;;2.00;;
19758;SDS011;10038;42.662;23.278;2023-03-01T02:00:32;2.93;;;2.17;;
19758;SDS011;10038;42.662;23.278;2023-03-01T02:02:59;2.30;;;1.80;;
19758;SDS011;10038;42.662;23.278;2023-03-01T02:05:37;2.43;;;2.23;;
19758;SDS011;10038;42.662;23.278;2023-03-01T02:08:04;2.67;;;2.00;;
19758;SDS011;10038;42.662;23.278;2023-03-01T02:10:33;3.17;;;2.20;;
19758;SDS011;10038;42.662;23.278;2023-03-01T02:13:02;1.97;;;1.73;;
19758;SDS011;10038;42.662;23.278;2023-03-01T02:15:31;2.30;;;1.80;;
19758;SDS011;10038;42.662;23.278;2023-03-01T02:17:59;2.80;;;2.10;;
19758;SDS011;10038;42.662;23.278;2023-03-01T02:20:26;3.47;;;2.50;;
19758;SDS011;10038;42.662;23.278;2023-03-01T02:22:55;2.83;;;2.00;;
19758;SDS011;10038;42.662;23.278;2023-03-01T02:25:35;2.40;;;1.90;;
19758;SDS011;10038;42.662;23.278;2023-03-01T02:28:04;3.17;;;2.33;;
19758;SDS011;10038;42.662;23.278;2023-03-01T02:30:34;3.30;;;1.90;;
19758;SDS011;10038;42.662;23.278;2023-03-01T02:33:01;2.67;;;2.27;;
19758;SDS011;10038;42.662;23.278;2023-03-01T02:35:28;2.10;;;1.80;;
19758;SDS011;10038;42.662;23.278;2023-03-01T02:37:55;2.70;;;2.37;;
19758;SDS011;10038;42.662;23.278;2023-03-01T02:40:25;3.30;;;2.40;;
19758;SDS011;10038;42.662;23.278;2023-03-01T02:42:54;6.22;;;2.55;;
19758;SDS011;10038;42.662;23.278;2023-03-01T02:45:21;2.80;;;2.57;;
19758;SDS011;10038;42.662;23.278;2023-03-01T02:47:50;2.70;;;2.10;;
19758;SDS011;10038;42.662;23.278;2023-03-01T02:50:24;3.17;;;2.50;;
19758;SDS011;10038;42.662;23.278;2023-03-01T02:52:53;3.00;;;2.70;;
19758;SDS011;10038;42.662;23.278;2023-03-01T02:55:24;2.80;;;2.40;;
19758;SDS011;10038;42.662;23.278;2023-03-01T02:57:50;5.97;;;2.37;;
19758;SDS011;10038;42.662;23.278;2023-03-01T03:00:18;2.88;;;2.20;;
19758;SDS011;10038;42.662;23.278;2023-03-01T03:02:45;4.85;;;2.72;;
19758;SDS011;10038;42.662;23.278;2023-03-01T03:05:14;4.77;;;2.53;;
19758;SDS011;10038;42.662;23.278;2023-03-01T03:07:44;6.53;;;3.40;;
19758;SDS011;10038;42.662;23.278;2023-03-01T03:10:12;3.90;;;2.83;;
19758;SDS011;10038;42.662;23.278;2023-03-01T03:12:39;2.72;;;2.30;;
19758;SDS011;10038;42.662;23.278;2023-03-01T03:15:06;4.63;;;3.23;;
19758;SDS011;10038;42.662;23.278;2023-03-01T03:17:34;4.80;;;3.33;;
19758;SDS011;10038;42.662;23.278;2023-03-01T03:20:00;7.28;;;3.25;;
19758;SDS011;10038;42.662;23.278;2023-03-01T03:22:30;5.90;;;4.07;;
19758;SDS011;10038;42.662;23.278;2023-03-01T03:24:59;5.05;;;3.30;;
19758;SDS011;10038;42.662;23.278;2023-03-01T03:27:25;4.35;;;3.63;;
19758;SDS011;10038;42.662;23.278;2023-03-01T03:29:52;5.00;;;4.00;;
19758;SDS011;10038;42.662;23.278;2023-03-01T03:32:19;6.40;;;3.47;;
19758;SDS011;10038;42.662;23.278;2023-03-01T03:34:45;5.75;;;3.60;;
19758;SDS011;10038;42.662;23.278;2023-03-01T03:37:13;5.97;;;4.05;;
19758;SDS011;10038;42.662;23.278;2023-03-01T03:39:55;5.80;;;3.53;;
19758;SDS011;10038;42.662;23.278;2023-03-01T03:42:22;8.07;;;4.32;;
19758;SDS011;10038;42.662;23.278;2023-03-01T03:44:50;4.72;;;3.03;;
19758;SDS011;10038;42.662;23.278;2023-03-01T03:47:16;5.50;;;3.13;;
19758;SDS011;10038;42.662;23.278;2023-03-01T03:49:43;4.75;;;3.65;;
19758;SDS011;10038;42.662;23.278;2023-03-01T03:52:10;5.10;;;3.13;;
19758;SDS011;10038;42.662;23.278;2023-03-01T03:54:38;6.53;;;3.90;;
19758;SDS011;10038;42.662;23.278;2023-03-01T03:57:06;4.43;;;3.10;;
19758;SDS011;10038;42.662;23.278;2023-03-01T03:59:33;6.63;;;3.78;;
19758;SDS011;10038;42.662;23.278;2023-03-01T04:02:00;5.68;;;3.70;;
19758;SDS011;10038;42.662;23.278;2023-03-01T04:04:26;5.68;;;3.28;;
19758;SDS011;10038;42.662;23.278;2023-03-01T04:06:53;5.72;;;3.05;;
19758;SDS011;10038;42.662;23.278;2023-03-01T04:09:20;5.20;;;3.28;;
19758;SDS011;10038;42.662;23.278;2023-03-01T04:11:46;5.63;;;2.88;;
19758;SDS011;10038;42.662;23.278;2023-03-01T04:14:14;4.38;;;2.60;;
19758;SDS011;10038;42.662;23.278;2023-03-01T04:16:41;4.60;;;2.60;;
19758;SDS011;10038;42.662;23.278;2023-03-01T04:19:08;3.00;;;2.38;;
19758;SDS011;10038;42.662;23.278;2023-03-01T04:21:34;6.63;;;3.00;;
19758;SDS011;10038;42.662;23.278;2023-03-01T04:24:02;4.88;;;2.75;;
19758;SDS011;10038;42.662;23.278;2023-03-01T04:26:29;5.30;;;2.50;;
19758;SDS011;10038;42.662;23.278;2023-03-01T04:28:55;3.40;;;2.40;;
19758;SDS011;10038;42.662;23.278;2023-03-01T04:31:24;3.20;;;2.50;;
19758;SDS011;10038;42.662;23.278;2023-03-01T04:33:51;3.58;;;2.63;;
19758;SDS011;10038;42.662;23.278;2023-03-01T04:36:18;4.05;;;2.42;;
19758;SDS011;10038;42.662;23.278;2023-03-01T04:38:47;4.15;;;3.45;;
19758;SDS011;10038;42.662;23.278;2023-03-01T04:41:15;4.13;;;3.17;;
19758;SDS011;10038;42.662;23.278;2023-03-01T04:43:42;3.97;;;2.47;;
19758;SDS011;10038;42.662;23.278;2023-03-01T04:46:09;6.15;;;3.70;;
19758;SDS011;10038;42.662;23.278;2023-03-01T04:48:38;4.90;;;3.08;;
19758;SDS011;10038;42.662;23.278;2023-03-01T04:51:05;4.47;;;2.90;;
19758;SDS011;10038;42.662;23.278;2023-03-01T04:53:33;5.60;;;3.60;;
19758;SDS011;10038;42.662;23.278;2023-03-01T04:56:01;4.67;;;3.60;;
19758;SDS011;10038;42.662;23.278;2023-03-01T04:58:29;7.43;;;3.67;;
19758;SDS011;10038;42.662;23.278;2023-03-01T05:00:56;6.80;;;3.85;;
19758;SDS011;10038;42.662;23.278;2023-03-01T05:03:23;6.10;;;3.00;;
19758;SDS011;10038;42.662;23.278;2023-03-01T05:05:52;7.72;;;3.78;;
19758;SDS011;10038;42.662;23.278;2023-03-01T05:08:19;7.70;;;4.15;;
19758;SDS011;10038;42.662;23.278;2023-03-01T05:10:46;4.53;;;3.45;;
19758;SDS011;10038;42.662;23.278;2023-03-01T05:13:14;9.32;;;3.75;;
19758;SDS011;10038;42.662;23.278;2023-03-01T05:15:46;5.45;;;2.95;;
19758;SDS011;10038;42.662;23.278;2023-03-01T05:18:13;4.32;;;3.03;;
19758;SDS011;10038;42.662;23.278;2023-03-01T05:20:40;3.53;;;2.80;;
19758;SDS011;10038;42.662;23.278;2023-03-01T05:23:08;4.30;;;2.93;;
19758;SDS011;10038;42.662;23.278;2023-03-01T05:25:35;5.03;;;2.97;;
19758;SDS011;10038;42.662;23.278;2023-03-01T05:28:05;5.30;;;3.13;;
19758;SDS011;10038;42.662;23.278;2023-03-01T05:30:32;4.70;;;3.00;;
19758;SDS011;10038;42.662;23.278;2023-03-01T05:32:59;6.10;;;3.20;;
19758;SDS011;10038;42.662;23.278;2023-03-01T05:35:26;5.60;;;4.25;;
19758;SDS011;10038;42.662;23.278;2023-03-01T05:37:54;3.72;;;2.88;;
19758;SDS011;10038;42.662;23.278;2023-03-01T05:40:22;3.27;;;2.70;;
19758;SDS011;10038;42.662;23.278;2023-03-01T05:42:51;5.38;;;3.28;;
19758;SDS011;10038;42.662;23.278;2023-03-01T05:45:18;4.20;;;3.17;;
19758;SDS011;10038;42.662;23.278;2023-03-01T05:47:45;8.80;;;4.32;;
19758;SDS011;10038;42.662;23.278;2023-03-01T05:50:13;3.70;;;3.17;;
19758;SDS011;10038;42.662;23.278;2023-03-01T05:52:43;4.90;;;3.10;;
19758;SDS011;10038;42.662;23.278;2023-03-01T05:55:10;4.03;;;3.03;;
19758;SDS011;10038;42.662;23.278;2023-03-01T05:57:38;4.80;;;3.33;;
19758;SDS011;10038;42.662;23.278;2023-03-01T06:00:05;10.40;;;3.53;;
19758;SDS011;10038;42.662;23.278;2023-03-01T06:02:33;6.40;;;3.40;;
19758;SDS011;10038;42.662;23.278;2023-03-01T06:05:00;4.20;;;2.90;;
19758;SDS011;10038;42.662;23.278;2023-03-01T06:07:27;7.73;;;3.10;;
19758;SDS011;10038;42.662;23.278;2023-03-01T06:09:54;3.20;;;2.73;;
19758;SDS011;10038;42.662;23.278;2023-03-01T06:12:20;3.77;;;3.40;;
19758;SDS011;10038;42.662;23.278;2023-03-01T06:14:49;4.20;;;2.33;;
19758;SDS011;10038;42.662;23.278;2023-03-01T06:17:15;4.10;;;2.47;;
19758;SDS011;10038;42.662;23.278;2023-03-01T06:19:42;2.92;;;2.40;;
19758;SDS011;10038;42.662;23.278;2023-03-01T06:22:09;3.60;;;3.00;;
19758;SDS011;10038;42.662;23.278;2023-03-01T06:24:35;3.47;;;2.40;;
19758;SDS011;10038;42.662;23.278;2023-03-01T06:27:02;2.50;;;2.30;;
19758;SDS011;10038;42.662;23.278;2023-03-01T06:29:29;2.72;;;1.88;;
19758;SDS011;10038;42.662;23.278;2023-03-01T06:31:57;3.50;;;2.17;;
19758;SDS011;10038;42.662;23.278;2023-03-01T06:34:23;2.57;;;2.13;;
19758;SDS011;10038;42.662;23.278;2023-03-01T06:36:50;2.00;;;1.70;;
19758;SDS011;10038;42.662;23.278;2023-03-01T06:39:17;3.63;;;2.67;;
19758;SDS011;10038;42.662;23.278;2023-03-01T06:41:43;3.47;;;2.50;;
19758;SDS011;10038;42.662;23.278;2023-03-01T06:44:10;2.10;;;1.90;;
19758;SDS011;10038;42.662;23.278;2023-03-01T06:46:37;3.23;;;2.37;;
19758;SDS011;10038;42.662;23.278;2023-03-01T06:49:08;4.13;;;3.10;;
19758;SDS011;10038;42.662;23.278;2023-03-01T06:51:35;3.30;;;2.50;;
19758;SDS011;10038;42.662;23.278;2023-03-01T06:54:03;4.40;;;2.83;;
19758;SDS011;10038;42.662;23.278;2023-03-01T06:56:29;3.60;;;2.50;;
19758;SDS011;10038;42.662;23.278;2023-03-01T06:58:56;3.80;;;2.40;;
19758;SDS011;10038;42.662;23.278;2023-03-01T07:01:23;4.17;;;2.20;;
19758;SDS011;10038;42.662;23.278;2023-03-01T07:03:49;2.63;;;2.20;;
19758;SDS011;10038;42.662;23.278;2023-03-01T07:06:17;4.00;;;2.30;;
19758;SDS011;10038;42.662;23.278;2023-03-01T07:08:44;2.90;;;2.60;;
19758;SDS011;10038;42.662;23.278;2023-03-01T07:11:11;3.20;;;2.27;;
19758;SDS011;10038;42.662;23.278;2023-03-01T07:13:37;3.10;;;2.10;;
19758;SDS011;10038;42.662;23.278;2023-03-01T07:16:04;3.33;;;2.13;;
19758;SDS011;10038;42.662;23.278;2023-03-01T07:18:31;2.80;;;2.50;;
19758;SDS011;10038;42.662;23.278;2023-03-01T07:20:58;3.27;;;1.97;;
19758;SDS011;10038;42.662;23.278;2023-03-01T07:23:26;5.73;;;2.10;;
19758;SDS011;10038;42.662;23.278;2023-03-01T07:25:52;7.97;;;2.17;;
19758;SDS011;10038;42.662;23.278;2023-03-01T07:28:19;2.90;;;2.20;;
19758;SDS011;10038;42.662;23.278;2023-03-01T07:30:46;3.13;;;2.20;;
19758;SDS011;10038;42.662;23.278;2023-03-01T07:33:12;3.60;;;2.40;;
19758;SDS011;10038;42.662;23.278;2023-03-01T07:35:39;2.47;;;1.87;;
19758;SDS011;10038;42.662;23.278;2023-03-01T07:38:06;3.70;;;2.53;;
19758;SDS011;10038;42.662;23.278;2023-03-01T07:40:34;3.30;;;2.10;;
19758;SDS011;10038;42.662;23.278;2023-03-01T07:43:00;3.70;;;1.80;;
19758;SDS011;10038;42.662;23.278;2023-03-01T07:45:27;2.30;;;2.00;;
19758;SDS011;10038;42.662;23.278;2023-03-01T07:47:54;3.33;;;2.47;;
19758;SDS011;10038;42.662;23.278;2023-03-01T07:50:21;6.20;;;3.00;;
19758;SDS011;10038;42.662;23.278;2023-03-01T07:52:48;3.00;;;2.70;;
19758;SDS011;10038;42.662;23.278;2023-03-01T07:55:15;7.37;;;3.20;;
19758;SDS011;10038;42.662;23.278;2023-03-01T07:57:44;3.30;;;2.67;;
19758;SDS011;10038;42.662;23.278;2023-03-01T08:00:11;2.70;;;1.90;;
19758;SDS011;10038;42.662;23.278;2023-03-01T08:02:40;4.97;;;2.67;;
19758;SDS011;10038;42.662;23.278;2023-03-01T08:05:08;4.00;;;2.50;;
19758;SDS011;10038;42.662;23.278;2023-03-01T08:07:35;3.43;;;2.30;;
19758;SDS011;10038;42.662;23.278;2023-03-01T08:10:02;6.40;;;2.70;;
19758;SDS011;10038;42.662;23.278;2023-03-01T08:12:29;5.47;;;2.93;;
19758;SDS011;10038;42.662;23.278;2023-03-01T08:14:57;2.57;;;2.37;;
19758;SDS011;10038;42.662;23.278;2023-03-01T08:17:23;5.07;;;2.40;;
19758;SDS011;10038;42.662;23.278;2023-03-01T08:19:50;3.67;;;2.20;;
19758;SDS011;10038;42.662;23.278;2023-03-01T08:22:17;2.47;;;2.07;;
19758;SDS011;10038;42.662;23.278;2023-03-01T08:24:43;6.30;;;2.23;;
19758;SDS011;10038;42.662;23.278;2023-03-01T08:27:10;3.40;;;2.93;;
19758;SDS011;10038;42.662;23.278;2023-03-01T08:29:37;4.60;;;3.50;;
19758;SDS011;10038;42.662;23.278;2023-03-01T08:32:06;6.47;;;5.40;;
19758;SDS011;10038;42.662;23.278;2023-03-01T08:34:34;6.57;;;5.27;;
19758;SDS011;10038;42.662;23.278;2023-03-01T08:37:01;5.93;;;4.67;;
19758;SDS011;10038;42.662;23.278;2023-03-01T08:39:28;6.70;;;4.93;;
19758;SDS011;10038;42.662;23.278;2023-03-01T08:41:55;5.07;;;3.77;;
19758;SDS011;10038;42.662;23.278;2023-03-01T08:44:21;5.43;;;3.43;;
19758;SDS011;10038;42.662;23.278;2023-03-01T08:46:50;4.80;;;3.43;;
19758;SDS011;10038;42.662;23.278;2023-03-01T08:49:19;3.70;;;2.63;;
19758;SDS011;10038;42.662;23.278;2023-03-01T08:51:46;3.80;;;2.50;;
19758;SDS011;10038;42.662;23.278;2023-03-01T08:54:13;4.00;;;2.40;;
19758;SDS011;10038;42.662;23.278;2023-03-01T08:56:41;3.37;;;2.77;;
19758;SDS011;10038;42.662;23.278;2023-03-01T08:59:11;2.70;;;1.93;;
19758;SDS011;10038;42.662;23.278;2023-03-01T09:01:37;3.67;;;2.47;;
19758;SDS011;10038;42.662;23.278;2023-03-01T09:04:05;3.20;;;2.73;;
19758;SDS011;10038;42.662;23.278;2023-03-01T09:06:33;3.37;;;2.27;;
19758;SDS011;10038;42.662;23.278;2023-03-01T09:09:00;3.33;;;2.43;;
19758;SDS011;10038;42.662;23.278;2023-03-01T09:11:27;4.37;;;2.40;;
19758;SDS011;10038;42.662;23.278;2023-03-01T09:13:56;4.53;;;2.27;;
19758;SDS011;10038;42.662;23.278;2023-03-01T09:16:23;6.20;;;3.73;;
19758;SDS011;10038;42.662;23.278;2023-03-01T09:18:50;6.37;;;3.93;;
19758;SDS011;10038;42.662;23.278;2023-03-01T09:21:17;4.43;;;3.63;;
19758;SDS011;10038;42.662;23.278;2023-03-01T09:23:47;4.67;;;2.60;;
19758;SDS011;10038;42.662;23.278;2023-03-01T09:26:17;7.20;;;3.03;;
19758;SDS011;10038;42.662;23.278;2023-03-01T09:28:44;3.77;;;2.40;;
19758;SDS011;10038;42.662;23.278;2023-03-01T09:31:12;5.30;;;2.97;;
19758;SDS011;10038;42.662;23.278;2023-03-01T09:33:39;4.57;;;3.30;;
19758;SDS011;10038;42.662;23.278;2023-03-01T09:36:07;2.67;;;2.20;;
19758;SDS011;10038;42.662;23.278;2023-03-01T09:38:34;4.80;;;3.07;;
19758;SDS011;10038;42.662;23.278;2023-03-01T09:41:02;5.70;;;3.00;;
19758;SDS011;10038;42.662;23.278;2023-03-01T09:43:34;3.17;;;2.73;;
19758;SDS011;10038;42.662;23.278;2023-03-01T09:46:04;5.07;;;2.60;;
19758;SDS011;10038;42.662;23.278;2023-03-01T09:48:33;6.67;;;2.53;;
19758;SDS011;10038;42.662;23.278;2023-03-01T09:51:05;3.20;;;2.00;;
19758;SDS011;10038;42.662;23.278;2023-03-01T09:53:34;2.10;;;1.70;;
19758;SDS011;10038;42.662;23.278;2023-03-01T09:56:04;3.70;;;2.40;;
19758;SDS011;10038;42.662;23.278;2023-03-01T09:58:34;3.50;;;2.23;;
19758;SDS011;10038;42.662;23.278;2023-03-01T10:01:02;2.67;;;2.10;;
19758;SDS011;10038;42.662;23.278;2023-03-01T10:03:32;2.30;;;2.07;;
19758;SDS011;10038;42.662;23.278;2023-03-01T10:06:01;2.73;;;2.10;;
19758;SDS011;10038;42.662;23.278;2023-03-01T10:08:31;5.10;;;2.10;;
19758;SDS011;10038;42.662;23.278;2023-03-01T10:11:03;3.03;;;2.10;;
19758;SDS011;10038;42.662;23.278;2023-03-01T10:13:33;2.97;;;2.00;;
19758;SDS011;10038;42.662;23.278;2023-03-01T10:16:05;3.57;;;1.90;;
19758;SDS011;10038;42.662;23.278;2023-03-01T10:18:35;2.93;;;2.10;;
19758;SDS011;10038;42.662;23.278;2023-03-01T10:21:08;2.70;;;1.63;;
19758;SDS011;10038;42.662;23.278;2023-03-01T10:23:38;5.93;;;3.30;;
19758;SDS011;10038;42.662;23.278;2023-03-01T10:26:09;5.53;;;3.00;;
19758;SDS011;10038;42.662;23.278;2023-03-01T10:28:41;5.43;;;3.20;;
19758;SDS011;10038;42.662;23.278;2023-03-01T10:31:11;3.80;;;2.10;;
19758;SDS011;10038;42.662;23.278;2023-03-01T10:33:41;4.03;;;2.67;;
19758;SDS011;10038;42.662;23.278;2023-03-01T10:36:08;5.60;;;2.20;;
19758;SDS011;10038;42.662;23.278;2023-03-01T10:38:46;2.70;;;2.27;;
19758;SDS011;10038;42.662;23.278;2023-03-01T10:41:19;5.00;;;2.53;;
19758;SDS011;10038;42.662;23.278;2023-03-01T10:43:49;3.70;;;2.77;;
19758;SDS011;10038;42.662;23.278;2023-03-01T10:46:23;3.50;;;2.03;;
19758;SDS011;10038;42.662;23.278;2023-03-01T10:49:04;2.73;;;2.30;;
19758;SDS011;10038;42.662;23.278;2023-03-01T10:51:31;2.90;;;2.20;;
19758;SDS011;10038;42.662;23.278;2023-03-01T10:53:58;3.67;;;2.47;;
19758;SDS011;10038;42.662;23.278;2023-03-01T10:56:26;2.50;;;1.87;;
19758;SDS011;10038;42.662;23.278;2023-03-01T10:58:56;5.80;;;3.13;;
19758;SDS011;10038;42.662;23.278;2023-03-01T11:01:25;6.37;;;2.77;;
19758;SDS011;10038;42.662;23.278;2023-03-01T11:04:03;6.07;;;2.20;;
19758;SDS011;10038;42.662;23.278;2023-03-01T11:06:30;3.80;;;2.53;;
19758;SDS011;10038;42.662;23.278;2023-03-01T11:09:01;3.90;;;3.03;;
19758;SDS011;10038;42.662;23.278;2023-03-01T11:11:41;3.90;;;3.27;;
19758;SDS011;10038;42.662;23.278;2023-03-01T11:14:12;4.90;;;3.33;;
19758;SDS011;10038;42.662;23.278;2023-03-01T11:16:40;3.00;;;2.63;;
19758;SDS011;10038;42.662;23.278;2023-03-01T11:19:15;3.70;;;2.83;;
19758;SDS011;10038;42.662;23.278;2023-03-01T11:21:42;3.90;;;2.80;;
19758;SDS011;10038;42.662;23.278;2023-03-01T11:24:10;3.23;;;2.70;;
19758;SDS011;10038;42.662;23.278;2023-03-01T11:26:40;6.83;;;3.33;;
19758;SDS011;10038;42.662;23.278;2023-03-01T11:29:12;5.20;;;2.80;;
19758;SDS011;10038;42.662;23.278;2023-03-01T11:31:39;3.33;;;2.67;;
19758;SDS011;10038;42.662;23.278;2023-03-01T11:34:08;4.47;;;2.87;;
19758;SDS011;10038;42.662;23.278;2023-03-01T11:36:54;5.93;;;3.20;;
19758;SDS011;10038;42.662;23.278;2023-03-01T11:39:25;3.40;;;2.97;;
19758;SDS011;10038;42.662;23.278;2023-03-01T11:41:57;4.30;;;3.13;;
19758;SDS011;10038;42.662;23.278;2023-03-01T11:44:28;5.97;;;3.13;;
19758;SDS011;10038;42.662;23.278;2023-03-01T11:47:04;4.47;;;2.90;;
19758;SDS011;10038;42.662;23.278;2023-03-01T11:49:43;4.40;;;3.20;;
19758;SDS011;10038;42.662;23.278;2023-03-01T11:52:18;6.53;;;2.97;;
19758;SDS011;10038;42.662;23.278;2023-03-01T11:54:52;4.50;;;3.03;;
19758;SDS011;10038;42.662;23.278;2023-03-01T11:57:33;7.13;;;3.40;;
19758;SDS011;10038;42.662;23.278;2023-03-01T12:00:07;5.10;;;3.87;;
19758;SDS011;10038;42.662;23.278;2023-03-01T12:02:54;5.23;;;3.10;;
19758;SDS011;10038;42.662;23.278;2023-03-01T12:05:25;5.33;;;3.30;;
19758;SDS011;10038;42.662;23.278;2023-03-01T12:07:57;4.33;;;3.10;;
19758;SDS011;10038;42.662;23.278;2023-03-01T12:10:25;5.30;;;3.53;;
19758;SDS011;10038;42.662;23.278;2023-03-01T12:12:58;4.17;;;2.77;;
19758;SDS011;10038;42.662;23.278;2023-03-01T12:15:37;7.43;;;2.93;;
19758;SDS011;10038;42.662;23.278;2023-03-01T12:18:15;5.47;;;3.57;;
19758;SDS011;10038;42.662;23.278;2023-03-01T12:20:45;4.93;;;3.40;;
19758;SDS011;10038;42.662;23.278;2023-03-01T12:26:06;7.13;;;3.57;;
19758;SDS011;10038;42.662;23.278;2023-03-01T12:34:15;5.87;;;3.50;;
19758;SDS011;10038;42.662;23.278;2023-03-01T12:36:47;6.63;;;3.30;;
19758;SDS011;10038;42.662;23.278;2023-03-01T12:39:21;4.80;;;3.13;;
19758;SDS011;10038;42.662;23.278;2023-03-01T12:41:52;5.47;;;3.50;;
19758;SDS011;10038;42.662;23.278;2023-03-01T12:44:25;5.30;;;3.57;;
19758;SDS011;10038;42.662;23.278;2023-03-01T12:46:59;3.70;;;2.77;;
19758;SDS011;10038;42.662;23.278;2023-03-01T12:49:32;3.00;;;2.20;;
19758;SDS011;10038;42.662;23.278;2023-03-01T12:52:02;3.67;;;2.80;;
19758;SDS011;10038;42.662;23.278;2023-03-01T12:54:30;3.97;;;2.87;;
19758;SDS011;10038;42.662;23.278;2023-03-01T12:56:59;4.30;;;2.90;;
19758;SDS011;10038;42.662;23.278;2023-03-01T12:59:30;3.03;;;2.50;;
19758;SDS011;10038;42.662;23.278;2023-03-01T13:02:01;4.30;;;3.30;;
19758;SDS011;10038;42.662;23.278;2023-03-01T13:04:33;3.27;;;2.53;;
19758;SDS011;10038;42.662;23.278;2023-03-01T13:07:05;4.20;;;2.63;;
19758;SDS011;10038;42.662;23.278;2023-03-01T13:09:35;3.13;;;2.70;;
19758;SDS011;10038;42.662;23.278;2023-03-01T13:14:47;4.00;;;2.90;;
19758;SDS011;10038;42.662;23.278;2023-03-01T13:17:30;3.50;;;3.03;;
19758;SDS011;10038;42.662;23.278;2023-03-01T13:20:00;4.60;;;3.40;;
19758;SDS011;10038;42.662;23.278;2023-03-01T13:22:29;3.47;;;2.50;;
19758;SDS011;10038;42.662;23.278;2023-03-01T13:25:01;4.83;;;3.17;;
19758;SDS011;10038;42.662;23.278;2023-03-01T13:27:28;5.17;;;3.50;;
19758;SDS011;10038;42.662;23.278;2023-03-01T13:29:56;4.63;;;3.13;;
19758;SDS011;10038;42.662;23.278;2023-03-01T13:32:25;4.63;;;3.43;;
19758;SDS011;10038;42.662;23.278;2023-03-01T13:34:57;2.93;;;2.63;;
19758;SDS011;10038;42.662;23.278;2023-03-01T13:37:31;4.80;;;3.17;;
19758;SDS011;10038;42.662;23.278;2023-03-01T13:40:03;3.63;;;2.77;;
19758;SDS011;10038;42.662;23.278;2023-03-01T13:42:35;4.67;;;2.90;;
19758;SDS011;10038;42.662;23.278;2023-03-01T13:45:03;4.50;;;3.53;;
19758;SDS011;10038;42.662;23.278;2023-03-01T13:47:30;6.37;;;3.13;;
19758;SDS011;10038;42.662;23.278;2023-03-01T13:50:00;3.90;;;2.23;;
19758;SDS011;10038;42.662;23.278;2023-03-01T13:52:34;6.80;;;3.77;;
19758;SDS011;10038;42.662;23.278;2023-03-01T13:55:03;3.20;;;2.60;;
19758;SDS011;10038;42.662;23.278;2023-03-01T13:57:32;3.83;;;3.00;;
19758;SDS011;10038;42.662;23.278;2023-03-01T14:00:00;3.03;;;2.60;;
19758;SDS011;10038;42.662;23.278;2023-03-01T14:02:26;3.30;;;2.93;;
19758;SDS011;10038;42.662;23.278;2023-03-01T14:04:56;4.43;;;2.87;;
19758;SDS011;10038;42.662;23.278;2023-03-01T14:07:25;7.50;;;3.10;;
19758;SDS011;10038;42.662;23.278;2023-03-01T14:09:56;5.23;;;3.50;;
19758;SDS011;10038;42.662;23.278;2023-03-01T14:12:31;6.17;;;3.67;;
19758;SDS011;10038;42.662;23.278;2023-03-01T14:15:02;7.30;;;3.00;;
19758;SDS011;10038;42.662;23.278;2023-03-01T14:20:14;6.37;;;3.00;;
19758;SDS011;10038;42.662;23.278;2023-03-01T14:22:42;5.47;;;3.70;;
19758;SDS011;10038;42.662;23.278;2023-03-01T14:25:21;9.30;;;4.00;;
19758;SDS011;10038;42.662;23.278;2023-03-01T14:27:54;8.40;;;3.37;;
19758;SDS011;10038;42.662;23.278;2023-03-01T14:30:21;5.60;;;3.07;;
19758;SDS011;10038;42.662;23.278;2023-03-01T14:32:52;7.70;;;3.90;;
19758;SDS011;10038;42.662;23.278;2023-03-01T14:35:19;4.63;;;3.00;;
19758;SDS011;10038;42.662;23.278;2023-03-01T14:37:48;3.87;;;2.90;;
19758;SDS011;10038;42.662;23.278;2023-03-01T14:40:21;3.60;;;3.27;;
19758;SDS011;10038;42.662;23.278;2023-03-01T14:42:49;5.10;;;3.63;;
19758;SDS011;10038;42.662;23.278;2023-03-01T14:45:15;4.20;;;2.80;;
19758;SDS011;10038;42.662;23.278;2023-03-01T14:47:43;4.87;;;3.00;;
19758;SDS011;10038;42.662;23.278;2023-03-01T14:50:15;4.47;;;3.50;;
19758;SDS011;10038;42.662;23.278;2023-03-01T14:52:42;8.67;;;3.63;;
19758;SDS011;10038;42.662;23.278;2023-03-01T14:55:13;5.03;;;2.87;;
19758;SDS011;10038;42.662;23.278;2023-03-01T14:57:44;6.23;;;3.43;;